Terminal Aerodrome Forecast
Issued by NWS Shreveport, LA

Home | Current Version | Previous Version | Text Only | Print | Product List | Glossary On
Versions: 1 2 3 4 5 6 7 8 9 10 11 12 13 14
000
FTUS44 KSHV 261742
TAFMLU
TAF
KMLU 261742Z 2618/2718 20012G19KT P6SM BKN035
     FM262100 20016G23KT P6SM BKN050
     FM270100 19012KT P6SM SCT050
     FM270600 19010KT P6SM OVC020
     FM270900 19008KT P6SM BKN007 OVC015
     FM271600 19012KT P6SM BKN015 OVC025=

USA.gov is the U.S. government's official web portal to all federal, state and local government web resources and services.